createdAt,value
2019-06-08T00:00:15.269Z,19.73
2019-06-08T00:02:44.121Z,21.73
2019-06-08T00:05:12.936Z,22.77
2019-06-08T00:07:41.677Z,25.00
2019-06-08T00:10:11.117Z,21.03
2019-06-08T00:12:40.006Z,20.17
2019-06-08T00:15:09.266Z,20.63
2019-06-08T00:17:39.258Z,21.80
2019-06-08T00:20:10.311Z,22.80
2019-06-08T00:22:40.230Z,22.20
2019-06-08T00:25:10.684Z,21.20
2019-06-08T00:27:39.657Z,28.03
2019-06-08T00:30:09.187Z,24.23
2019-06-08T00:32:37.840Z,22.63
2019-06-08T00:35:07.565Z,26.10
2019-06-08T00:37:37.116Z,24.37
2019-06-08T00:40:08.059Z,22.30
2019-06-08T00:42:39.574Z,26.40
2019-06-08T00:45:09.552Z,24.37
2019-06-08T00:47:47.660Z,23.03
2019-06-08T00:50:10.883Z,22.00
2019-06-08T00:52:39.575Z,20.77
2019-06-08T00:55:09.567Z,27.60
2019-06-08T00:57:38.332Z,22.93
2019-06-08T01:00:11.842Z,25.10
2019-06-08T01:02:41.044Z,26.50
2019-06-08T01:05:09.850Z,26.57
2019-06-08T01:07:38.460Z,24.30
2019-06-08T01:10:10.324Z,27.30
2019-06-08T01:12:40.455Z,28.57
2019-06-08T01:15:12.748Z,26.43
2019-06-08T01:17:41.518Z,26.37
2019-06-08T01:20:10.604Z,25.93
2019-06-08T01:22:39.323Z,27.43
2019-06-08T01:25:09.615Z,28.67
2019-06-08T01:27:40.880Z,31.73
2019-06-08T01:30:10.246Z,26.83
2019-06-08T01:32:40.467Z,25.37
2019-06-08T01:35:11.997Z,27.37
2019-06-08T01:37:40.505Z,27.13
2019-06-08T01:40:12.814Z,27.60
2019-06-08T01:42:41.522Z,23.37
2019-06-08T01:45:12.039Z,27.70
2019-06-08T01:47:40.689Z,31.33
2019-06-08T01:50:09.444Z,28.33
2019-06-08T01:52:39.714Z,28.10
2019-06-08T01:55:11.203Z,25.77
2019-06-08T01:57:39.864Z,26.10
2019-06-08T02:00:29.260Z,28.13
2019-06-08T02:02:39.621Z,28.00
2019-06-08T02:05:08.905Z,21.70
2019-06-08T02:07:40.587Z,24.60
2019-06-08T02:10:11.423Z,25.07
2019-06-08T02:12:40.138Z,22.60
2019-06-08T02:15:09.587Z,23.57
2019-06-08T02:17:39.695Z,15.40
2019-06-08T02:20:09.074Z,14.00
2019-06-08T02:22:37.730Z,10.50
2019-06-08T02:25:07.326Z,4.57
2019-06-08T02:27:37.045Z,3.43
2019-06-08T02:30:14.223Z,5.83
2019-06-08T02:32:42.954Z,13.00
2019-06-08T02:35:13.800Z,3.93
2019-06-08T02:37:42.446Z,2.60
2019-06-08T02:40:11.392Z,3.93
2019-06-08T02:42:40.332Z,2.70
2019-06-08T02:45:12.935Z,2.50
2019-06-08T02:47:41.576Z,5.50
2019-06-08T02:50:10.751Z,2.70
2019-06-08T02:52:40.963Z,3.20
2019-06-08T02:55:09.932Z,2.20
2019-06-08T02:57:41.821Z,9.87
2019-06-08T03:00:12.872Z,1.43
2019-06-08T03:02:47.234Z,6.43
2019-06-08T03:05:16.684Z,3.40
2019-06-08T03:07:47.773Z,1.90
2019-06-08T03:10:16.813Z,1.97
2019-06-08T03:12:46.072Z,3.10
2019-06-08T03:15:17.662Z,1.27
2019-06-08T03:17:46.278Z,1.60
2019-06-08T03:20:14.993Z,2.03
2019-06-08T03:22:44.122Z,3.27
2019-06-08T03:25:12.960Z,3.23
2019-06-08T03:27:43.161Z,1.70
2019-06-08T03:30:19.018Z,5.37
2019-06-08T03:32:50.612Z,3.67
2019-06-08T03:35:14.894Z,1.70
2019-06-08T03:37:44.479Z,2.17
2019-06-08T03:40:13.706Z,1.63
2019-06-08T03:42:42.627Z,2.17
2019-06-08T03:45:11.567Z,1.57
2019-06-08T03:47:41.824Z,2.10
2019-06-08T03:50:11.065Z,1.43
2019-06-08T03:52:40.422Z,1.17
2019-06-08T03:55:10.059Z,1.10
2019-06-08T03:57:40.337Z,6.23
2019-06-08T04:00:13.753Z,2.00
2019-06-08T04:02:44.159Z,4.10
2019-06-08T04:05:13.125Z,1.30
2019-06-08T04:07:42.202Z,2.30
2019-06-08T04:10:12.098Z,2.70
2019-06-08T04:12:41.943Z,3.50
2019-06-08T04:15:11.457Z,1.73
2019-06-08T04:17:40.074Z,1.40
2019-06-08T04:20:11.672Z,4.57
2019-06-08T04:22:44.735Z,3.83
2019-06-08T04:25:15.364Z,1.13
2019-06-08T04:27:44.820Z,2.80
2019-06-08T04:30:14.206Z,3.30
2019-06-08T04:32:44.735Z,1.23
2019-06-08T04:35:13.731Z,2.03
2019-06-08T04:37:43.095Z,2.40
2019-06-08T04:40:12.793Z,3.00
2019-06-08T04:42:42.275Z,1.77
2019-06-08T04:45:11.921Z,2.13
2019-06-08T04:47:41.493Z,1.70
2019-06-08T04:50:22.532Z,2.60
2019-06-08T04:52:42.575Z,1.93
2019-06-08T04:55:11.587Z,1.50
2019-06-08T04:57:41.885Z,1.70
2019-06-08T05:00:12.898Z,2.30
2019-06-08T05:02:44.046Z,1.80
2019-06-08T05:05:12.375Z,2.03
2019-06-08T05:07:43.607Z,4.30
2019-06-08T05:10:13.738Z,1.40
2019-06-08T05:12:43.390Z,2.43
2019-06-08T05:15:12.489Z,4.77
2019-06-08T05:17:41.421Z,3.60
2019-06-08T05:20:10.314Z,4.80
2019-06-08T05:22:41.428Z,2.43
2019-06-08T05:25:11.396Z,1.50
2019-06-08T05:27:41.241Z,2.30
2019-06-08T05:30:10.624Z,1.77
2019-06-08T05:32:39.501Z,1.40
2019-06-08T05:35:09.307Z,2.70
2019-06-08T05:37:39.602Z,2.33
2019-06-08T05:40:09.542Z,4.20
2019-06-08T05:42:42.122Z,2.40
2019-06-08T05:45:11.199Z,3.00
2019-06-08T05:47:39.849Z,2.53
2019-06-08T05:50:09.101Z,2.00
2019-06-08T05:52:39.762Z,2.40
2019-06-08T05:55:09.590Z,1.37
2019-06-08T05:57:40.170Z,2.67
2019-06-08T06:00:11.979Z,6.03
2019-06-08T06:02:42.158Z,2.60
2019-06-08T06:05:12.229Z,1.53
2019-06-08T06:07:40.909Z,5.97
2019-06-08T06:10:10.063Z,6.00
2019-06-08T06:12:38.788Z,2.33
2019-06-08T06:15:08.038Z,3.03
2019-06-08T06:17:40.923Z,2.30
2019-06-08T06:20:10.707Z,1.73
2019-06-08T06:22:42.013Z,2.60
2019-06-08T06:25:12.144Z,1.60
2019-06-08T06:27:41.561Z,1.67
2019-06-08T06:30:12.621Z,0.80
2019-06-08T06:32:43.901Z,2.67
2019-06-08T06:35:13.469Z,1.10
2019-06-08T06:37:43.783Z,2.87
2019-06-08T06:40:13.783Z,1.73
2019-06-08T06:42:43.850Z,2.73
2019-06-08T06:45:13.698Z,1.50
2019-06-08T06:47:44.177Z,1.00
2019-06-08T06:50:14.100Z,2.30
2019-06-08T06:52:44.625Z,1.93
2019-06-08T06:57:51.567Z,3.27
2019-06-08T07:00:32.111Z,0.90
2019-06-08T07:03:02.508Z,2.00
2019-06-08T07:05:31.557Z,3.40
2019-06-08T07:08:00.786Z,2.20
2019-06-08T07:10:30.251Z,3.33
2019-06-08T07:13:00.023Z,2.97
2019-06-08T07:15:29.727Z,2.70
2019-06-08T07:17:58.797Z,1.83
2019-06-08T07:20:29.428Z,5.23
2019-06-08T07:22:59.082Z,1.53
2019-06-08T07:25:31.621Z,2.10
2019-06-08T07:28:01.453Z,2.90
2019-06-08T07:30:30.628Z,2.83
2019-06-08T07:33:00.214Z,1.03
2019-06-08T07:35:31.419Z,2.50
2019-06-08T07:38:08.058Z,1.77
2019-06-08T07:40:39.345Z,3.30
2019-06-08T07:43:09.168Z,2.87
2019-06-08T07:45:38.313Z,1.60
2019-06-08T07:48:10.777Z,2.23
2019-06-08T07:50:41.448Z,1.77
2019-06-08T07:53:10.889Z,3.17
2019-06-08T07:55:45.251Z,3.70
2019-06-08T07:58:19.047Z,1.93
2019-06-08T08:00:52.983Z,5.53
2019-06-08T08:03:22.837Z,3.03
2019-06-08T08:05:53.568Z,2.80
2019-06-08T08:08:25.952Z,3.33
2019-06-08T08:10:56.770Z,3.37
2019-06-08T08:13:53.248Z,1.00
2019-06-08T08:16:23.547Z,1.27
2019-06-08T08:18:59.827Z,2.70
2019-06-08T08:21:34.877Z,2.10
2019-06-08T08:26:39.157Z,1.97
2019-06-08T08:29:18.652Z,1.90
2019-06-08T08:31:49.112Z,2.77
2019-06-08T08:34:18.506Z,2.83
2019-06-08T08:36:50.577Z,1.20
2019-06-08T08:39:21.010Z,6.17
2019-06-08T08:41:56.348Z,1.87
2019-06-08T08:44:22.945Z,2.07
2019-06-08T08:46:54.706Z,0.90
2019-06-08T08:49:28.098Z,6.27
2019-06-08T08:52:01.696Z,2.70
2019-06-08T08:54:31.240Z,6.60
2019-06-08T08:57:03.403Z,1.67
2019-06-08T08:59:32.094Z,2.63
2019-06-08T09:02:03.085Z,1.00
2019-06-08T09:04:33.139Z,1.33
2019-06-08T09:07:06.908Z,9.63
2019-06-08T09:09:34.809Z,2.93
2019-06-08T09:12:04.642Z,0.80
2019-06-08T09:14:34.037Z,3.27
2019-06-08T09:17:08.277Z,3.20
2019-06-08T09:19:38.225Z,2.40
2019-06-08T09:22:08.959Z,4.13
2019-06-08T09:24:40.842Z,2.10
2019-06-08T09:27:09.977Z,4.73
2019-06-08T09:29:38.959Z,2.93
2019-06-08T09:32:10.586Z,4.40
2019-06-08T09:34:39.407Z,1.60
2019-06-08T09:37:09.902Z,2.20
2019-06-08T09:39:38.881Z,1.10
2019-06-08T09:42:10.671Z,1.90
2019-06-08T09:44:39.713Z,1.10
2019-06-08T09:47:12.551Z,2.62
2019-06-08T09:49:41.444Z,1.73
2019-06-08T09:52:10.268Z,2.20
2019-06-08T09:54:40.526Z,1.93
2019-06-08T09:57:14.176Z,1.10
2019-06-08T09:59:42.911Z,5.40
2019-06-08T10:02:12.997Z,2.07
2019-06-08T10:04:41.883Z,3.77
2019-06-08T10:07:10.686Z,2.10
2019-06-08T10:09:43.116Z,2.30
2019-06-08T10:12:10.335Z,1.13
2019-06-08T10:14:40.572Z,1.30
2019-06-08T10:17:12.519Z,1.30
2019-06-08T10:19:41.182Z,3.73
2019-06-08T10:22:09.704Z,1.40
2019-06-08T10:24:41.665Z,2.33
2019-06-08T10:27:11.759Z,5.50
2019-06-08T10:29:40.772Z,1.50
2019-06-08T10:32:11.691Z,1.47
2019-06-08T10:34:40.564Z,2.27
2019-06-08T10:37:13.539Z,3.47
2019-06-08T10:39:42.631Z,1.20
2019-06-08T10:42:11.626Z,1.80
2019-06-08T10:44:40.484Z,4.63
2019-06-08T10:47:12.402Z,1.93
2019-06-08T10:49:41.218Z,3.53
2019-06-08T10:52:12.084Z,3.03
2019-06-08T10:54:40.390Z,1.93
2019-06-08T10:57:12.062Z,1.20
2019-06-08T10:59:40.871Z,1.17
2019-06-08T11:02:13.856Z,1.33
2019-06-08T11:04:43.065Z,1.90
2019-06-08T11:07:15.487Z,3.87
2019-06-08T11:09:41.154Z,1.30
2019-06-08T11:12:14.552Z,3.97
2019-06-08T11:14:40.755Z,4.17
2019-06-08T11:17:11.178Z,2.17
2019-06-08T11:19:40.036Z,2.30
2019-06-08T11:22:13.851Z,4.23
2019-06-08T11:24:43.176Z,8.57
2019-06-08T11:27:12.945Z,3.23
2019-06-08T11:29:41.999Z,3.07
2019-06-08T11:32:12.454Z,2.20
2019-06-08T11:34:41.156Z,11.13
2019-06-08T11:37:13.008Z,3.83
2019-06-08T11:39:40.738Z,3.63
2019-06-08T11:42:12.264Z,3.57
2019-06-08T11:44:39.910Z,0.90
2019-06-08T11:47:12.240Z,4.93
2019-06-08T11:49:42.164Z,3.37
2019-06-08T11:52:11.199Z,1.80
2019-06-08T11:54:41.152Z,6.73
2019-06-08T11:57:12.790Z,21.90
2019-06-08T11:59:42.256Z,6.70
2019-06-08T12:02:13.904Z,4.73
2019-06-08T12:04:41.432Z,5.27
2019-06-08T12:07:12.072Z,6.50
2019-06-08T12:09:40.492Z,5.80
2019-06-08T12:12:17.171Z,10.07
2019-06-08T12:14:40.805Z,2.80
2019-06-08T12:17:13.541Z,3.40
2019-06-08T12:19:40.002Z,3.27
2019-06-08T12:22:10.349Z,5.73
2019-06-08T12:24:42.769Z,8.17
2019-06-08T12:27:23.687Z,4.13
2019-06-08T12:29:41.970Z,5.90
2019-06-08T12:32:12.433Z,5.03
2019-06-08T12:34:41.485Z,5.87
2019-06-08T12:37:14.541Z,5.50
2019-06-08T12:39:40.454Z,10.70
2019-06-08T12:42:17.092Z,2.40
2019-06-08T12:44:43.718Z,3.10
2019-06-08T12:47:15.899Z,2.10
2019-06-08T12:49:43.098Z,8.30
2019-06-08T12:52:12.812Z,7.30
2019-06-08T12:54:56.410Z,2.80
2019-06-08T12:57:15.509Z,4.87
2019-06-08T12:59:45.421Z,1.70
2019-06-08T13:02:17.476Z,4.20
2019-06-08T13:04:44.083Z,2.30
2019-06-08T13:07:13.173Z,5.93
2019-06-08T13:09:42.030Z,3.70
2019-06-08T13:12:11.452Z,4.50
2019-06-08T13:14:40.272Z,5.47
2019-06-08T13:17:11.871Z,7.23
2019-06-08T13:19:40.985Z,6.53
2019-06-08T13:22:10.775Z,9.53
2019-06-08T13:24:39.553Z,5.07
2019-06-08T13:27:12.021Z,4.50
2019-06-08T13:29:40.065Z,8.10
2019-06-08T13:32:09.823Z,6.47
2019-06-08T13:34:41.324Z,4.60
2019-06-08T13:37:10.625Z,6.57
2019-06-08T13:39:39.861Z,2.87
2019-06-08T13:42:08.755Z,3.83
2019-06-08T13:44:37.880Z,3.27
2019-06-08T13:47:07.614Z,34.10
2019-06-08T13:49:37.670Z,5.20
2019-06-08T13:52:09.023Z,1.43
2019-06-08T13:54:41.122Z,6.53
2019-06-08T13:57:10.237Z,3.47
2019-06-08T13:59:40.494Z,4.33
2019-06-08T14:02:13.504Z,4.30
2019-06-08T14:04:46.028Z,5.93
2019-06-08T14:07:15.068Z,3.27
2019-06-08T14:09:43.497Z,3.10
2019-06-08T14:12:12.258Z,3.07
2019-06-08T14:14:40.978Z,9.37
2019-06-08T14:17:09.898Z,2.10
2019-06-08T14:19:38.683Z,1.73
2019-06-08T14:22:10.493Z,2.80
2019-06-08T14:24:38.096Z,2.90
2019-06-08T14:27:08.307Z,1.43
2019-06-08T14:29:39.242Z,3.03
2019-06-08T14:32:08.057Z,3.10
2019-06-08T14:34:39.562Z,4.23
2019-06-08T14:37:09.784Z,2.50
2019-06-08T14:39:41.579Z,1.83
2019-06-08T14:42:10.295Z,3.87
2019-06-08T14:44:42.097Z,2.20
2019-06-08T14:47:13.765Z,4.33
2019-06-08T14:49:44.187Z,3.13
2019-06-08T14:52:13.362Z,2.50
2019-06-08T14:54:42.057Z,2.00
2019-06-08T14:57:11.306Z,4.40
2019-06-08T14:59:39.994Z,4.03
2019-06-08T15:02:09.511Z,16.83
2019-06-08T15:04:40.016Z,4.80
2019-06-08T15:07:12.308Z,4.60
2019-06-08T15:09:40.920Z,2.60
2019-06-08T15:12:09.630Z,4.90
2019-06-08T15:14:41.321Z,5.20
2019-06-08T15:17:09.928Z,9.63
2019-06-08T15:19:38.756Z,2.13
2019-06-08T15:22:11.383Z,1.67
2019-06-08T15:24:40.094Z,3.90
2019-06-08T15:27:10.252Z,6.97
2019-06-08T15:29:40.651Z,4.07
2019-06-08T15:32:09.854Z,8.40
2019-06-08T15:34:38.566Z,1.30
2019-06-08T15:37:09.261Z,3.17
2019-06-08T15:39:40.623Z,9.30
2019-06-08T15:42:09.334Z,8.53
2019-06-08T15:44:39.492Z,1.73
2019-06-08T15:47:10.049Z,4.33
2019-06-08T15:52:34.342Z,7.93
2019-06-08T15:55:03.047Z,2.33
2019-06-08T15:57:36.606Z,2.00
2019-06-08T16:00:02.307Z,2.23
2019-06-08T16:02:31.680Z,2.63
2019-06-08T16:05:00.658Z,1.80
2019-06-08T16:07:31.290Z,7.27
2019-06-08T16:09:59.722Z,4.60
2019-06-08T16:12:28.466Z,4.20
2019-06-08T16:14:57.048Z,4.07
2019-06-08T16:17:27.133Z,2.03
2019-06-08T16:19:55.918Z,2.83
2019-06-08T16:22:25.730Z,2.30
2019-06-08T16:24:54.788Z,7.70
2019-06-08T16:27:23.512Z,7.80
2019-06-08T16:29:52.120Z,2.83
2019-06-08T16:32:21.244Z,7.10
2019-06-08T16:34:49.969Z,1.90
2019-06-08T16:37:18.628Z,3.40
2019-06-08T16:39:47.390Z,4.83
2019-06-08T16:42:16.105Z,4.43
2019-06-08T16:44:44.814Z,3.03
2019-06-08T16:47:13.527Z,4.40
2019-06-08T16:49:42.239Z,2.57
2019-06-08T16:52:10.953Z,4.93
2019-06-08T16:54:39.969Z,3.53
2019-06-08T16:57:10.550Z,2.00
2019-06-08T16:59:42.223Z,4.20
2019-06-08T17:02:11.360Z,3.20
2019-06-08T17:04:39.967Z,6.60
2019-06-08T17:07:09.099Z,3.43
2019-06-08T17:09:37.894Z,2.33
2019-06-08T17:12:09.295Z,4.50
2019-06-08T17:14:38.647Z,1.90
2019-06-08T17:17:10.447Z,3.17
2019-06-08T17:19:42.036Z,3.33
2019-06-08T17:22:11.053Z,1.63
2019-06-08T17:24:40.758Z,4.93
2019-06-08T17:27:25.261Z,1.77
2019-06-08T17:29:40.997Z,8.90
2019-06-08T17:32:09.928Z,4.60
2019-06-08T17:34:38.636Z,4.10
2019-06-08T17:37:07.363Z,4.23
2019-06-08T17:39:36.502Z,1.53
2019-06-08T17:42:05.229Z,1.70
2019-06-08T17:44:34.855Z,3.60
2019-06-08T17:47:04.090Z,2.20
2019-06-08T17:49:32.798Z,5.33
2019-06-08T17:52:01.952Z,4.07
2019-06-08T17:54:30.745Z,1.60
2019-06-08T17:56:59.347Z,4.17
2019-06-08T17:59:28.064Z,1.67
2019-06-08T18:01:56.875Z,4.63
2019-06-08T18:04:27.991Z,3.87
2019-06-08T18:06:58.073Z,4.87
2019-06-08T18:09:28.106Z,9.17
2019-06-08T18:11:59.268Z,5.73
2019-06-08T18:14:30.696Z,2.40
2019-06-08T18:16:57.874Z,5.30
2019-06-08T18:19:29.403Z,2.80
2019-06-08T18:22:04.390Z,8.63
2019-06-08T18:24:29.421Z,3.33
2019-06-08T18:26:59.058Z,3.30
2019-06-08T18:29:28.180Z,2.33
2019-06-08T18:31:58.085Z,2.83
2019-06-08T18:34:28.480Z,3.63
2019-06-08T18:36:57.974Z,8.63
2019-06-08T18:39:28.611Z,2.90
2019-06-08T18:41:58.879Z,7.80
2019-06-08T18:44:28.471Z,2.13
2019-06-08T18:46:57.863Z,7.33
2019-06-08T18:49:28.749Z,1.83
2019-06-08T18:51:58.260Z,4.63
2019-06-08T18:54:27.995Z,2.90
2019-06-08T18:56:57.121Z,4.57
2019-06-08T18:59:28.385Z,5.00
2019-06-08T19:01:56.386Z,18.43
2019-06-08T19:04:30.038Z,2.80
2019-06-08T19:06:56.163Z,6.67
2019-06-08T19:09:25.300Z,3.23
2019-06-08T19:11:54.121Z,3.63
2019-06-08T19:14:22.834Z,13.30
2019-06-08T19:16:54.823Z,7.17
2019-06-08T19:19:22.113Z,7.93
2019-06-08T19:21:50.834Z,8.20
2019-06-08T19:24:19.540Z,9.83
2019-06-08T19:26:49.052Z,6.03
2019-06-08T19:29:19.496Z,5.97
2019-06-08T19:31:51.198Z,16.10
2019-06-08T19:34:18.917Z,5.63
2019-06-08T19:36:52.129Z,7.57
2019-06-08T19:39:18.492Z,5.57
2019-06-08T19:41:50.426Z,6.00
2019-06-08T19:44:18.359Z,3.57
2019-06-08T19:46:52.013Z,2.77
2019-06-08T19:49:17.567Z,6.50
2019-06-08T19:51:48.567Z,9.03
2019-06-08T19:54:18.255Z,3.43
2019-06-08T19:56:49.359Z,4.03
2019-06-08T19:59:18.359Z,5.10
2019-06-08T20:01:51.357Z,6.30
2019-06-08T20:04:18.212Z,7.20
2019-06-08T20:06:50.349Z,6.40
2019-06-08T20:09:18.234Z,3.27
2019-06-08T20:11:53.387Z,5.67
2019-06-08T20:14:17.401Z,3.90
2019-06-08T20:16:49.148Z,6.23
2019-06-08T20:19:17.609Z,7.63
2019-06-08T20:21:50.837Z,5.43
2019-06-08T20:24:18.413Z,8.37
2019-06-08T20:26:51.760Z,4.10
2019-06-08T20:29:20.012Z,4.40
2019-06-08T20:31:50.362Z,3.30
2019-06-08T20:34:18.925Z,4.03
2019-06-08T20:36:48.726Z,3.43
2019-06-08T20:39:21.431Z,5.67
2019-06-08T20:41:53.009Z,6.83
2019-06-08T20:44:23.509Z,5.90
2019-06-08T20:46:53.902Z,7.80
2019-06-08T20:49:27.701Z,8.23
2019-06-08T20:51:57.044Z,3.67
2019-06-08T20:54:27.869Z,5.60
2019-06-08T20:56:58.013Z,7.37
2019-06-08T20:59:33.658Z,11.93
2019-06-08T21:01:59.007Z,4.93
2019-06-08T21:04:28.714Z,5.10
2019-06-08T21:06:57.660Z,4.33
2019-06-08T21:09:27.851Z,4.80
2019-06-08T21:11:58.696Z,7.03
2019-06-08T21:14:27.491Z,4.33
2019-06-08T21:16:58.558Z,6.40
2019-06-08T21:19:28.138Z,8.53
2019-06-08T21:21:59.213Z,7.33
2019-06-08T21:24:28.086Z,5.47
2019-06-08T21:27:00.779Z,12.80
2019-06-08T21:29:46.598Z,8.43
2019-06-08T21:32:01.817Z,4.90
2019-06-08T21:34:29.585Z,5.87
2019-06-08T21:37:00.877Z,3.73
2019-06-08T21:39:29.166Z,6.07
2019-06-08T21:42:02.608Z,8.80
2019-06-08T21:44:28.142Z,4.97
2019-06-08T21:47:00.844Z,5.17
2019-06-08T21:49:32.740Z,6.70
2019-06-08T21:52:01.557Z,6.57
2019-06-08T21:54:30.585Z,5.90
2019-06-08T21:57:00.938Z,6.20
2019-06-08T21:59:29.774Z,5.50
2019-06-08T22:02:01.860Z,3.73
2019-06-08T22:04:28.965Z,4.33
2019-06-08T22:06:59.721Z,11.17
2019-06-08T22:09:28.592Z,4.50
2019-06-08T22:12:00.768Z,3.30
2019-06-08T22:14:27.892Z,13.03
2019-06-08T22:17:00.911Z,7.23
2019-06-08T22:19:27.624Z,5.60
2019-06-08T22:21:59.952Z,7.03
2019-06-08T22:24:27.762Z,7.00
2019-06-08T22:26:58.636Z,5.13
2019-06-08T22:29:27.609Z,7.07
2019-06-08T22:32:17.957Z,9.47
2019-06-08T22:34:48.889Z,3.50
2019-06-08T22:37:40.845Z,5.33
2019-06-08T22:40:10.173Z,3.27
2019-06-08T22:42:49.357Z,5.13
2019-06-08T22:45:18.100Z,5.00
2019-06-08T22:47:47.797Z,4.20
2019-06-08T22:50:18.563Z,3.00
2019-06-08T22:52:47.705Z,4.23
2019-06-08T22:55:18.562Z,6.13
2019-06-08T22:57:47.898Z,6.90
2019-06-08T23:00:24.839Z,3.83
2019-06-08T23:02:54.422Z,5.10
2019-06-08T23:05:23.368Z,11.80
2019-06-08T23:08:04.349Z,5.73
2019-06-08T23:10:31.048Z,5.07
2019-06-08T23:13:02.312Z,4.97
2019-06-08T23:15:30.189Z,7.93
2019-06-08T23:18:00.939Z,5.57
2019-06-08T23:20:29.723Z,6.13
2019-06-08T23:23:00.900Z,6.40
2019-06-08T23:25:28.896Z,8.70
2019-06-08T23:27:58.201Z,9.80
2019-06-08T23:30:27.716Z,5.70
2019-06-08T23:32:57.284Z,6.70
2019-06-08T23:35:27.579Z,5.90
2019-06-08T23:37:56.854Z,4.87
2019-06-08T23:40:27.306Z,4.67
2019-06-08T23:42:58.232Z,5.80
2019-06-08T23:45:27.170Z,5.47
2019-06-08T23:47:58.402Z,5.70
2019-06-08T23:50:27.275Z,9.23
2019-06-08T23:52:56.109Z,4.27
2019-06-08T23:55:24.815Z,7.63
2019-06-08T23:57:53.438Z,10.43
